createdAt,value
2018-03-22T00:00:13.275Z,7.03
2018-03-22T00:03:17.435Z,9.23
2018-03-22T00:06:20.692Z,8.25
2018-03-22T00:09:23.926Z,6.45
2018-03-22T00:12:27.501Z,11.40
2018-03-22T00:15:31.592Z,14.05
2018-03-22T00:18:35.102Z,10.95
2018-03-22T00:21:38.456Z,8.38
2018-03-22T00:24:41.751Z,8.20
2018-03-22T00:27:45.007Z,9.60
2018-03-22T00:30:48.355Z,11.05
2018-03-22T00:33:51.647Z,7.72
2018-03-22T00:36:54.977Z,12.25
2018-03-22T00:39:58.553Z,16.12
2018-03-22T00:43:02.096Z,9.95
2018-03-22T00:46:06.170Z,9.48
2018-03-22T00:49:09.494Z,7.60
2018-03-22T00:52:12.798Z,9.25
2018-03-22T00:55:16.129Z,9.63
2018-03-22T00:58:20.161Z,11.93
2018-03-22T01:01:23.559Z,8.85
2018-03-22T01:04:26.930Z,9.65
2018-03-22T01:07:30.984Z,9.68
2018-03-22T01:10:34.235Z,18.75
2018-03-22T01:13:38.285Z,10.48
2018-03-22T01:16:41.618Z,8.07
2018-03-22T01:19:44.919Z,10.68
2018-03-22T01:22:48.985Z,8.02
2018-03-22T01:25:52.286Z,8.85
2018-03-22T01:28:55.578Z,12.50
2018-03-22T01:31:59.269Z,9.82
2018-03-22T01:35:03.294Z,8.15
2018-03-22T01:38:07.437Z,12.70
2018-03-22T01:41:10.711Z,9.07
2018-03-22T01:44:14.065Z,9.23
2018-03-22T01:47:17.314Z,8.20
2018-03-22T01:50:20.907Z,7.55
2018-03-22T01:53:24.176Z,10.65
2018-03-22T01:56:27.498Z,10.48
2018-03-22T01:59:30.835Z,8.13
2018-03-22T02:02:34.139Z,7.30
2018-03-22T02:05:37.462Z,9.90
2018-03-22T02:08:40.765Z,6.28
2018-03-22T02:11:44.100Z,8.30
2018-03-22T02:14:47.451Z,10.05
2018-03-22T02:17:50.755Z,13.88
2018-03-22T02:20:54.922Z,9.75
2018-03-22T02:23:58.191Z,9.25
2018-03-22T02:27:01.756Z,7.03
2018-03-22T02:30:05.056Z,9.65
2018-03-22T02:33:08.361Z,10.20
2018-03-22T02:36:11.672Z,11.25
2018-03-22T02:39:15.012Z,12.02
2018-03-22T02:42:18.287Z,10.90
2018-03-22T02:45:21.651Z,8.43
2018-03-22T02:48:25.748Z,6.20
2018-03-22T02:51:30.072Z,9.38
2018-03-22T02:54:33.420Z,10.15
2018-03-22T02:57:36.813Z,7.75
2018-03-22T03:00:40.109Z,10.70
2018-03-22T03:03:43.427Z,11.27
2018-03-22T03:06:46.695Z,9.68
2018-03-22T03:09:49.981Z,11.98
2018-03-22T03:12:53.275Z,13.75
2018-03-22T03:15:56.557Z,11.90
2018-03-22T03:18:59.813Z,9.55
2018-03-22T03:22:03.110Z,13.98
2018-03-22T03:25:06.340Z,10.30
2018-03-22T03:28:09.653Z,19.40
2018-03-22T03:31:13.493Z,9.77
2018-03-22T03:34:16.754Z,14.00
2018-03-22T03:37:20.878Z,11.70
2018-03-22T03:40:24.146Z,9.27
2018-03-22T03:43:27.574Z,9.88
2018-03-22T03:46:30.873Z,11.48
2018-03-22T03:49:34.154Z,8.50
2018-03-22T03:52:37.720Z,11.43
2018-03-22T03:55:41.074Z,10.00
2018-03-22T03:58:44.834Z,13.18
2018-03-22T04:01:48.128Z,12.77
2018-03-22T04:04:51.482Z,16.73
2018-03-22T04:07:54.752Z,12.07
2018-03-22T04:10:58.798Z,16.20
2018-03-22T04:14:02.043Z,20.90
2018-03-22T04:17:05.395Z,16.02
2018-03-22T04:20:08.657Z,13.57
2018-03-22T04:23:12.725Z,18.33
2018-03-22T04:26:15.989Z,13.73
2018-03-22T04:29:19.281Z,15.57
2018-03-22T04:32:23.307Z,19.70
2018-03-22T04:35:26.638Z,19.67
2018-03-22T04:38:29.944Z,13.43
2018-03-22T04:41:33.503Z,16.52
2018-03-22T04:44:36.841Z,19.83
2018-03-22T04:47:40.142Z,19.10
2018-03-22T04:50:43.515Z,15.05
2018-03-22T04:53:46.805Z,19.23
2018-03-22T04:56:50.187Z,19.83
2018-03-22T04:59:54.489Z,18.75
2018-03-22T05:02:59.267Z,20.15
2018-03-22T05:06:02.575Z,18.00
2018-03-22T05:09:05.878Z,24.90
2018-03-22T05:12:09.208Z,20.77
2018-03-22T05:15:13.241Z,18.33
2018-03-22T05:18:16.545Z,19.37
2018-03-22T05:21:19.833Z,24.25
2018-03-22T05:24:23.167Z,25.48
2018-03-22T05:27:26.446Z,27.40
2018-03-22T05:30:30.617Z,23.02
2018-03-22T05:33:34.870Z,23.80
2018-03-22T05:36:38.169Z,25.83
2018-03-22T05:39:41.556Z,32.80
2018-03-22T05:42:44.879Z,29.50
2018-03-22T05:45:49.030Z,25.95
2018-03-22T05:48:52.375Z,31.02
2018-03-22T05:51:55.773Z,26.65
2018-03-22T05:54:59.174Z,25.70
2018-03-22T05:58:03.250Z,22.75
2018-03-22T06:01:06.579Z,31.85
2018-03-22T06:04:09.829Z,29.73
2018-03-22T06:07:13.123Z,34.55
2018-03-22T06:10:16.407Z,24.45
2018-03-22T06:13:19.764Z,29.90
2018-03-22T06:16:23.578Z,30.70
2018-03-22T06:19:26.875Z,29.67
2018-03-22T06:22:30.505Z,29.05
2018-03-22T06:25:34.015Z,26.95
2018-03-22T06:28:37.525Z,24.70
2018-03-22T06:31:40.842Z,31.58
2018-03-22T06:34:44.175Z,33.80
2018-03-22T06:37:47.567Z,27.98
2018-03-22T06:40:50.913Z,28.12
2018-03-22T06:43:54.190Z,25.73
2018-03-22T06:46:57.497Z,24.85
2018-03-22T06:50:00.873Z,39.90
2018-03-22T06:53:04.317Z,20.75
2018-03-22T06:56:07.607Z,26.90
2018-03-22T06:59:11.045Z,33.80
2018-03-22T07:02:15.274Z,18.77
2018-03-22T07:05:18.989Z,29.27
2018-03-22T07:08:22.228Z,29.25
2018-03-22T07:11:25.553Z,24.35
2018-03-22T07:14:28.859Z,18.75
2018-03-22T07:17:33.024Z,27.42
2018-03-22T07:20:36.353Z,28.38
2018-03-22T07:23:39.664Z,32.20
2018-03-22T07:26:43.744Z,31.83
2018-03-22T07:29:47.071Z,27.98
2018-03-22T07:32:50.482Z,23.92
2018-03-22T07:35:53.847Z,21.62
2018-03-22T07:38:57.165Z,25.83
2018-03-22T07:42:00.428Z,24.67
2018-03-22T07:45:09.612Z,23.87
2018-03-22T07:48:13.690Z,25.35
2018-03-22T07:51:16.992Z,20.92
2018-03-22T07:54:20.276Z,27.13
2018-03-22T07:57:23.623Z,27.17
2018-03-22T08:00:27.668Z,25.98
2018-03-22T08:03:30.969Z,22.98
2018-03-22T08:06:34.483Z,22.67
2018-03-22T08:09:37.910Z,27.52
2018-03-22T08:12:41.166Z,23.83
2018-03-22T08:15:44.475Z,31.48
2018-03-22T08:18:47.769Z,26.85
2018-03-22T08:21:51.064Z,18.30
2018-03-22T08:24:54.396Z,25.20
2018-03-22T08:27:58.833Z,26.58
2018-03-22T08:31:02.117Z,18.85
2018-03-22T08:34:05.610Z,26.42
2018-03-22T08:37:08.854Z,29.00
2018-03-22T08:40:12.286Z,25.60
2018-03-22T08:43:15.802Z,30.95
2018-03-22T08:46:19.213Z,25.50
2018-03-22T08:49:23.253Z,29.73
2018-03-22T08:52:26.686Z,19.75
2018-03-22T08:55:29.964Z,22.50
2018-03-22T08:58:33.503Z,23.83
2018-03-22T09:01:36.773Z,26.40
2018-03-22T09:04:40.112Z,25.77
2018-03-22T09:07:44.184Z,26.52
2018-03-22T09:10:47.872Z,26.00
2018-03-22T09:13:51.995Z,29.83
2018-03-22T09:16:55.305Z,23.87
2018-03-22T09:19:59.735Z,27.67
2018-03-22T09:23:03.187Z,29.10
2018-03-22T09:26:08.261Z,24.12
2018-03-22T09:29:11.697Z,27.20
2018-03-22T09:32:14.990Z,27.27
2018-03-22T09:35:18.317Z,28.05
2018-03-22T09:38:21.595Z,25.67
2018-03-22T09:41:25.179Z,23.85
2018-03-22T09:44:28.623Z,25.52
2018-03-22T09:47:32.448Z,26.67
2018-03-22T09:50:35.731Z,24.65
2018-03-22T09:53:39.113Z,20.05
2018-03-22T09:56:42.510Z,20.20
2018-03-22T09:59:45.933Z,22.05
2018-03-22T10:02:50.012Z,26.90
2018-03-22T10:05:53.236Z,23.12
2018-03-22T10:08:56.590Z,23.60
2018-03-22T10:11:59.944Z,22.83
2018-03-22T10:15:03.266Z,19.52
2018-03-22T10:18:06.650Z,22.15
2018-03-22T10:21:10.010Z,23.67
2018-03-22T10:24:14.161Z,20.75
2018-03-22T10:27:18.268Z,19.83
2018-03-22T10:30:21.565Z,24.20
2018-03-22T10:33:25.057Z,26.80
2018-03-22T10:36:28.878Z,24.55
2018-03-22T10:39:32.351Z,22.45
2018-03-22T10:42:35.869Z,26.55
2018-03-22T10:45:39.318Z,21.08
2018-03-22T10:48:42.648Z,20.00
2018-03-22T10:51:46.034Z,23.40
2018-03-22T10:54:49.595Z,20.35
2018-03-22T10:57:52.917Z,21.02
2018-03-22T11:01:01.802Z,19.55
2018-03-22T11:04:08.069Z,20.20
2018-03-22T11:07:12.128Z,21.08
2018-03-22T11:10:15.452Z,19.60
2018-03-22T11:13:18.739Z,22.40
2018-03-22T11:16:22.028Z,21.50
2018-03-22T11:19:26.074Z,19.98
2018-03-22T11:22:30.122Z,21.70
2018-03-22T11:25:33.601Z,23.87
2018-03-22T11:28:37.270Z,17.50
2018-03-22T11:31:41.475Z,23.10
2018-03-22T11:34:44.808Z,21.35
2018-03-22T11:37:48.181Z,21.55
2018-03-22T11:40:52.335Z,24.08
2018-03-22T11:43:56.450Z,21.40
2018-03-22T11:46:59.907Z,18.70
2018-03-22T11:50:03.206Z,20.67
2018-03-22T11:53:06.504Z,24.42
2018-03-22T11:56:10.914Z,19.67
2018-03-22T11:59:14.251Z,23.83
2018-03-22T12:02:18.375Z,17.45
2018-03-22T12:05:22.453Z,18.87
2018-03-22T12:08:26.591Z,19.02
2018-03-22T12:11:30.641Z,21.98
2018-03-22T12:14:34.021Z,19.92
2018-03-22T12:17:37.367Z,18.52
2018-03-22T12:20:41.031Z,17.25
2018-03-22T12:23:45.057Z,15.98
2018-03-22T12:26:48.656Z,18.73
2018-03-22T12:29:51.986Z,16.55
2018-03-22T12:32:55.628Z,17.42
2018-03-22T12:35:58.942Z,18.98
2018-03-22T12:39:02.272Z,12.25
2018-03-22T12:42:05.614Z,17.10
2018-03-22T12:45:09.029Z,15.77
2018-03-22T12:48:12.303Z,17.25
2018-03-22T12:51:16.521Z,18.48
2018-03-22T12:54:19.817Z,14.77
2018-03-22T12:57:23.169Z,12.68
2018-03-22T13:00:26.473Z,16.00
2018-03-22T13:03:29.811Z,12.77
2018-03-22T13:06:33.134Z,12.73
2018-03-22T13:09:36.416Z,13.13
2018-03-22T13:12:39.720Z,14.77
2018-03-22T13:15:42.999Z,15.35
2018-03-22T13:18:46.337Z,13.48
2018-03-22T13:21:49.679Z,12.85
2018-03-22T13:24:52.971Z,9.07
2018-03-22T13:27:56.351Z,11.27
2018-03-22T13:30:59.678Z,12.88
2018-03-22T13:34:02.953Z,10.63
2018-03-22T13:37:06.232Z,13.32
2018-03-22T13:40:09.518Z,12.68
2018-03-22T13:43:12.828Z,12.82
2018-03-22T13:46:16.124Z,10.35
2018-03-22T13:49:19.443Z,10.38
2018-03-22T13:52:22.708Z,10.02
2018-03-22T13:55:26.057Z,12.48
2018-03-22T13:58:30.172Z,11.35
2018-03-22T14:01:33.678Z,12.18
2018-03-22T14:04:37.011Z,10.02
2018-03-22T14:07:41.035Z,12.75
2018-03-22T14:10:44.348Z,11.60
2018-03-22T14:13:48.404Z,12.23
2018-03-22T14:16:51.899Z,11.23
2018-03-22T14:19:55.243Z,11.88
2018-03-22T14:22:58.555Z,11.45
2018-03-22T14:26:01.825Z,12.00
2018-03-22T14:29:05.182Z,10.43
2018-03-22T14:32:09.263Z,13.32
2018-03-22T14:35:12.549Z,11.73
2018-03-22T14:38:15.913Z,10.88
2018-03-22T14:41:19.263Z,11.73
2018-03-22T14:44:22.545Z,11.88
2018-03-22T14:47:25.871Z,12.63
2018-03-22T14:50:29.178Z,11.98
2018-03-22T14:53:33.446Z,14.10
2018-03-22T14:56:36.757Z,10.93
2018-03-22T14:59:40.219Z,12.37
2018-03-22T15:02:43.665Z,9.88
2018-03-22T15:05:47.920Z,11.00
2018-03-22T15:08:51.250Z,10.18
2018-03-22T15:11:54.596Z,12.15
2018-03-22T15:14:57.942Z,11.27
2018-03-22T15:18:01.288Z,11.02
2018-03-22T15:21:04.592Z,14.43
2018-03-22T15:24:08.296Z,11.60
2018-03-22T15:27:11.632Z,12.63
2018-03-22T15:30:14.921Z,11.50
2018-03-22T15:33:18.964Z,14.57
2018-03-22T15:36:22.347Z,10.25
2018-03-22T15:39:26.478Z,10.00
2018-03-22T15:42:29.843Z,12.25
2018-03-22T15:45:33.498Z,14.07
2018-03-22T15:48:36.862Z,14.15
2018-03-22T15:51:40.327Z,9.82
2018-03-22T15:54:43.671Z,11.12
2018-03-22T15:57:47.004Z,9.65
2018-03-22T16:00:50.344Z,10.57
2018-03-22T16:03:54.536Z,11.85
2018-03-22T16:06:57.886Z,12.68
2018-03-22T16:10:02.046Z,15.27
2018-03-22T16:13:05.377Z,13.25
2018-03-22T16:16:08.805Z,12.90
2018-03-22T16:19:12.976Z,14.73
2018-03-22T16:22:17.146Z,12.30
2018-03-22T16:25:21.249Z,9.88
2018-03-22T16:28:24.534Z,10.82
2018-03-22T16:31:28.659Z,10.45
2018-03-22T16:34:32.730Z,13.45
2018-03-22T16:37:36.026Z,12.40
2018-03-22T16:40:39.387Z,12.48
2018-03-22T16:43:42.824Z,13.68
2018-03-22T16:46:46.943Z,14.43
2018-03-22T16:49:50.271Z,14.25
2018-03-22T16:52:53.616Z,14.30
2018-03-22T16:55:57.057Z,11.35
2018-03-22T16:59:00.442Z,11.38
2018-03-22T17:02:03.867Z,12.85
2018-03-22T17:05:07.240Z,12.60
2018-03-22T17:08:10.563Z,13.20
2018-03-22T17:11:14.650Z,16.12
2018-03-22T17:14:17.991Z,16.33
2018-03-22T17:17:21.301Z,15.50
2018-03-22T17:20:24.608Z,14.45
2018-03-22T17:23:27.885Z,11.55
2018-03-22T17:26:31.184Z,14.18
2018-03-22T17:29:34.744Z,13.13
2018-03-22T17:32:38.027Z,15.27
2018-03-22T17:35:41.382Z,23.23
2018-03-22T17:38:44.715Z,15.48
2018-03-22T17:41:48.057Z,11.95
2018-03-22T17:44:51.423Z,13.27
2018-03-22T17:47:54.819Z,13.27
2018-03-22T17:50:58.148Z,16.37
2018-03-22T17:54:01.416Z,18.10
2018-03-22T17:57:04.701Z,13.50
2018-03-22T18:00:07.978Z,13.90
2018-03-22T18:03:11.605Z,16.62
2018-03-22T18:06:14.866Z,15.18
2018-03-22T18:09:18.190Z,15.13
2018-03-22T18:12:22.305Z,13.45
2018-03-22T18:15:25.614Z,14.80
2018-03-22T18:18:31.566Z,17.98
2018-03-22T18:21:35.013Z,18.83
2018-03-22T18:24:38.330Z,15.75
2018-03-22T18:27:41.689Z,15.80
2018-03-22T18:30:45.165Z,14.25
2018-03-22T18:33:48.472Z,19.50
2018-03-22T18:36:51.774Z,18.23
2018-03-22T18:39:55.257Z,15.43
2018-03-22T18:42:58.870Z,16.77
2018-03-22T18:46:02.438Z,15.77
2018-03-22T18:49:07.045Z,15.18
2018-03-22T18:52:10.904Z,17.35
2018-03-22T18:55:14.534Z,14.60
2018-03-22T18:58:21.706Z,14.63
2018-03-22T19:01:25.236Z,16.92
2018-03-22T19:04:28.658Z,16.77
2018-03-22T19:07:32.044Z,14.90
2018-03-22T19:10:35.527Z,17.52
2018-03-22T19:13:39.671Z,17.20
2018-03-22T19:16:43.165Z,18.45
2018-03-22T19:19:46.540Z,18.67
2018-03-22T19:22:50.819Z,18.55
2018-03-22T19:25:54.248Z,16.45
2018-03-22T19:28:57.684Z,19.60
2018-03-22T19:32:01.289Z,16.55
2018-03-22T19:35:04.738Z,16.08
2018-03-22T19:38:08.218Z,18.30
2018-03-22T19:41:11.723Z,17.05
2018-03-22T19:44:15.188Z,18.92
2018-03-22T19:47:18.624Z,17.60
2018-03-22T19:50:22.063Z,19.23
2018-03-22T19:53:26.431Z,17.67
2018-03-22T19:56:29.849Z,22.55
2018-03-22T19:59:33.327Z,18.05
2018-03-22T20:02:36.760Z,21.23
2018-03-22T20:08:51.464Z,23.25
2018-03-22T20:11:55.856Z,22.83
2018-03-22T20:14:59.283Z,20.73
2018-03-22T20:18:02.767Z,19.83
2018-03-22T20:21:06.712Z,21.40
2018-03-22T20:24:10.149Z,22.33
2018-03-22T20:27:13.626Z,19.40
2018-03-22T20:30:17.026Z,22.35
2018-03-22T20:33:20.446Z,22.55
2018-03-22T20:36:23.921Z,26.80
2018-03-22T20:39:27.225Z,23.87
2018-03-22T20:42:30.540Z,20.02
2018-03-22T20:45:34.063Z,24.40
2018-03-22T20:48:37.370Z,22.67
2018-03-22T20:51:40.658Z,22.27
2018-03-22T20:54:43.932Z,29.33
2018-03-22T20:57:48.075Z,19.50
2018-03-22T21:00:51.455Z,20.33
2018-03-22T21:03:54.754Z,24.55
2018-03-22T21:06:58.035Z,26.70
2018-03-22T21:10:01.305Z,22.80
2018-03-22T21:13:05.348Z,23.23
2018-03-22T21:16:08.918Z,24.80
2018-03-22T21:19:12.169Z,24.70
2018-03-22T21:22:15.464Z,23.02
2018-03-22T21:25:18.726Z,25.65
2018-03-22T21:28:22.126Z,26.80
2018-03-22T21:31:26.195Z,28.48
2018-03-22T21:34:29.506Z,24.50
2018-03-22T21:37:32.843Z,25.52
2018-03-22T21:40:36.910Z,25.00
2018-03-22T21:43:51.989Z,27.98
2018-03-22T21:46:55.350Z,26.87
2018-03-22T21:49:58.778Z,22.50
2018-03-22T21:53:02.067Z,23.62
2018-03-22T21:56:05.382Z,27.58
2018-03-22T21:59:09.039Z,27.37
2018-03-22T22:02:12.372Z,28.15
2018-03-22T22:05:15.940Z,25.20
2018-03-22T22:08:19.231Z,27.13
2018-03-22T22:11:23.111Z,28.45
2018-03-22T22:14:26.392Z,26.27
2018-03-22T22:17:29.724Z,27.40
2018-03-22T22:20:33.102Z,22.13
2018-03-22T22:23:36.466Z,25.30
2018-03-22T22:26:39.779Z,23.25
2018-03-22T22:29:43.126Z,24.35
2018-03-22T22:32:47.172Z,23.12
2018-03-22T22:35:50.424Z,26.95
2018-03-22T22:38:53.674Z,23.90
2018-03-22T22:41:56.955Z,23.12
2018-03-22T22:45:00.333Z,25.17
2018-03-22T22:48:03.695Z,25.10
2018-03-22T22:51:06.985Z,24.67
2018-03-22T22:54:10.810Z,27.65
2018-03-22T22:57:14.917Z,28.05
2018-03-22T23:00:18.636Z,23.65
2018-03-22T23:03:21.940Z,27.25
2018-03-22T23:06:25.996Z,30.85
2018-03-22T23:09:29.257Z,24.15
2018-03-22T23:12:33.462Z,24.12
2018-03-22T23:15:36.839Z,26.52
2018-03-22T23:18:40.169Z,27.40
2018-03-22T23:21:43.530Z,29.98
2018-03-22T23:24:46.933Z,25.67
2018-03-22T23:27:50.345Z,27.60
2018-03-22T23:30:53.719Z,25.80
2018-03-22T23:33:57.078Z,23.05
2018-03-22T23:37:00.416Z,27.60
2018-03-22T23:40:03.744Z,26.45
2018-03-22T23:43:07.432Z,23.40
2018-03-22T23:46:10.786Z,25.48
2018-03-22T23:49:14.036Z,23.90
2018-03-22T23:52:17.347Z,27.70
2018-03-22T23:55:20.679Z,25.92
2018-03-22T23:58:24.078Z,24.48
